createdAt,value
2018-11-26T00:01:51.485Z,47.77
2018-11-26T00:04:19.678Z,49.00
2018-11-26T00:06:47.927Z,51.60
2018-11-26T00:09:16.145Z,48.03
2018-11-26T00:11:45.808Z,48.83
2018-11-26T00:14:14.065Z,49.50
2018-11-26T00:16:43.110Z,52.23
2018-11-26T00:19:11.397Z,46.53
2018-11-26T00:21:39.737Z,52.90
2018-11-26T00:24:07.958Z,46.87
2018-11-26T00:26:36.205Z,50.47
2018-11-26T00:29:04.577Z,48.80
2018-11-26T00:31:32.825Z,54.13
2018-11-26T00:34:01.179Z,50.07
2018-11-26T00:36:29.577Z,51.03
2018-11-26T00:38:57.857Z,47.33
2018-11-26T00:41:26.465Z,48.17
2018-11-26T00:43:54.826Z,47.60
2018-11-26T00:46:23.058Z,47.20
2018-11-26T00:48:51.386Z,47.57
2018-11-26T00:51:19.728Z,49.33
2018-11-26T00:53:48.198Z,49.70
2018-11-26T00:56:16.457Z,45.53
2018-11-26T00:58:44.806Z,53.07
2018-11-26T01:01:13.049Z,47.33
2018-11-26T01:03:41.318Z,49.53
2018-11-26T01:06:09.538Z,58.53
2018-11-26T01:08:37.858Z,43.00
2018-11-26T01:11:06.637Z,49.37
2018-11-26T01:13:35.018Z,52.00
2018-11-26T01:16:05.378Z,49.60
2018-11-26T01:18:33.827Z,49.97
2018-11-26T01:21:02.065Z,49.97
2018-11-26T01:23:30.697Z,50.67
2018-11-26T01:25:58.918Z,48.83
2018-11-26T01:28:27.117Z,47.43
2018-11-26T01:30:55.346Z,53.07
2018-11-26T01:33:23.602Z,47.33
2018-11-26T01:35:52.098Z,49.77
2018-11-26T01:38:20.717Z,51.87
2018-11-26T01:40:52.300Z,48.50
2018-11-26T01:43:21.725Z,55.63
2018-11-26T01:45:50.258Z,51.70
2018-11-26T01:48:18.905Z,55.83
2018-11-26T01:50:47.506Z,51.50
2018-11-26T01:53:16.025Z,56.57
2018-11-26T01:55:44.565Z,51.00
2018-11-26T01:58:13.317Z,50.30
2018-11-26T02:00:41.825Z,51.27
2018-11-26T02:03:10.557Z,52.23
2018-11-26T02:05:39.105Z,50.83
2018-11-26T02:08:07.805Z,59.53
2018-11-26T02:10:36.425Z,46.80
2018-11-26T02:13:05.180Z,52.13
2018-11-26T02:15:42.422Z,59.53
2018-11-26T02:18:11.607Z,52.87
2018-11-26T02:20:40.218Z,51.60
2018-11-26T02:23:09.220Z,51.40
2018-11-26T02:25:37.906Z,52.13
2018-11-26T02:28:07.328Z,53.17
2018-11-26T02:30:35.946Z,54.10
2018-11-26T02:33:04.547Z,49.43
2018-11-26T02:35:32.846Z,56.87
2018-11-26T02:38:01.006Z,49.17
2018-11-26T02:40:32.588Z,49.03
2018-11-26T02:43:01.227Z,52.77
2018-11-26T02:45:29.898Z,57.20
2018-11-26T02:47:58.192Z,53.27
2018-11-26T02:50:26.594Z,62.37
2018-11-26T02:52:54.845Z,55.97
2018-11-26T02:55:23.060Z,59.90
2018-11-26T02:57:51.225Z,53.17
2018-11-26T03:00:20.306Z,55.17
2018-11-26T03:02:48.529Z,56.80
2018-11-26T03:05:24.826Z,49.40
2018-11-26T03:07:53.286Z,53.27
2018-11-26T03:10:21.945Z,54.17
2018-11-26T03:12:50.146Z,56.70
2018-11-26T03:15:18.525Z,48.97
2018-11-26T03:17:46.826Z,49.30
2018-11-26T03:20:15.088Z,56.60
2018-11-26T03:22:43.226Z,54.30
2018-11-26T03:25:12.026Z,52.10
2018-11-26T03:27:40.298Z,52.57
2018-11-26T03:30:22.946Z,50.43
2018-11-26T03:32:51.078Z,52.23
2018-11-26T03:35:19.426Z,54.97
2018-11-26T03:37:47.557Z,50.57
2018-11-26T03:40:15.871Z,52.83
2018-11-26T03:42:44.490Z,49.50
2018-11-26T03:45:15.857Z,52.53
2018-11-26T03:47:44.065Z,45.67
2018-11-26T03:50:13.290Z,47.73
2018-11-26T03:52:42.568Z,45.27
2018-11-26T03:55:11.966Z,49.10
2018-11-26T03:57:40.185Z,49.87
2018-11-26T04:00:13.570Z,51.03
2018-11-26T04:02:41.798Z,45.63
2018-11-26T04:05:10.637Z,42.23
2018-11-26T04:07:38.817Z,50.17
2018-11-26T04:10:10.032Z,53.53
2018-11-26T04:12:38.286Z,49.13
2018-11-26T04:15:08.205Z,54.60
2018-11-26T04:17:36.486Z,49.30
2018-11-26T04:20:05.038Z,52.87
2018-11-26T04:22:33.746Z,48.53
2018-11-26T04:25:02.246Z,50.17
2018-11-26T04:27:30.626Z,48.60
2018-11-26T04:29:59.006Z,53.17
2018-11-26T04:32:27.220Z,54.17
2018-11-26T04:34:55.606Z,46.63
2018-11-26T04:37:23.828Z,49.43
2018-11-26T04:39:52.107Z,49.07
2018-11-26T04:42:20.357Z,49.67
2018-11-26T04:44:48.607Z,51.70
2018-11-26T04:47:16.846Z,50.40
2018-11-26T04:49:45.186Z,50.73
2018-11-26T04:52:13.427Z,49.07
2018-11-26T04:54:41.706Z,51.17
2018-11-26T04:57:09.986Z,48.67
2018-11-26T04:59:38.186Z,52.33
2018-11-26T05:02:06.446Z,53.40
2018-11-26T05:04:34.706Z,47.00
2018-11-26T05:07:02.986Z,50.20
2018-11-26T05:09:31.501Z,47.10
2018-11-26T05:11:59.746Z,45.20
2018-11-26T05:14:28.138Z,45.67
2018-11-26T05:16:56.775Z,54.93
2018-11-26T05:19:24.879Z,41.87
2018-11-26T05:21:53.106Z,49.57
2018-11-26T05:24:21.373Z,47.13
2018-11-26T05:26:49.765Z,47.40
2018-11-26T05:29:18.126Z,41.87
2018-11-26T05:31:46.357Z,44.03
2018-11-26T05:34:14.634Z,46.40
2018-11-26T05:36:42.785Z,44.73
2018-11-26T05:39:10.978Z,49.73
2018-11-26T05:41:39.146Z,44.83
2018-11-26T05:44:07.426Z,48.50
2018-11-26T05:46:35.749Z,49.97
2018-11-26T05:49:03.922Z,47.33
2018-11-26T05:51:33.801Z,48.43
2018-11-26T05:54:02.034Z,48.07
2018-11-26T05:56:30.739Z,50.23
2018-11-26T05:58:58.966Z,52.67
2018-11-26T06:01:27.225Z,51.50
2018-11-26T06:03:55.417Z,53.03
2018-11-26T06:06:23.729Z,53.77
2018-11-26T06:08:51.959Z,55.87
2018-11-26T06:11:20.238Z,52.70
2018-11-26T06:13:48.458Z,51.73
2018-11-26T06:16:16.926Z,44.87
2018-11-26T06:18:45.185Z,50.77
2018-11-26T06:21:13.487Z,50.23
2018-11-26T06:23:41.680Z,55.47
2018-11-26T06:26:10.281Z,50.07
2018-11-26T06:28:38.578Z,57.00
2018-11-26T06:31:07.017Z,65.10
2018-11-26T06:33:35.705Z,52.80
2018-11-26T06:36:04.001Z,57.07
2018-11-26T06:38:32.258Z,56.90
2018-11-26T06:41:00.517Z,60.20
2018-11-26T06:43:28.727Z,55.07
2018-11-26T06:45:57.917Z,55.87
2018-11-26T06:48:26.325Z,57.90
2018-11-26T06:50:54.598Z,53.80
2018-11-26T06:53:23.018Z,55.67
2018-11-26T06:55:52.658Z,56.93
2018-11-26T06:58:21.299Z,54.50
2018-11-26T07:00:49.824Z,57.00
2018-11-26T07:03:22.539Z,56.73
2018-11-26T07:05:50.898Z,58.83
2018-11-26T07:08:19.645Z,59.90
2018-11-26T07:10:47.926Z,60.10
2018-11-26T07:13:20.257Z,64.40
2018-11-26T07:15:48.845Z,70.67
2018-11-26T07:18:17.325Z,65.57
2018-11-26T07:20:45.645Z,62.07
2018-11-26T07:23:13.897Z,60.43
2018-11-26T07:25:42.178Z,62.87
2018-11-26T07:28:10.418Z,64.13
2018-11-26T07:30:39.305Z,62.97
2018-11-26T07:33:07.645Z,61.67
2018-11-26T07:35:36.238Z,64.60
2018-11-26T07:38:04.427Z,58.87
2018-11-26T07:40:32.597Z,57.70
2018-11-26T07:43:04.838Z,58.23
2018-11-26T07:45:33.097Z,57.40
2018-11-26T07:48:01.465Z,62.03
2018-11-26T07:50:29.638Z,56.20
2018-11-26T07:52:57.897Z,56.77
2018-11-26T07:55:26.129Z,60.37
2018-11-26T07:57:54.506Z,53.77
2018-11-26T08:00:23.485Z,55.53
2018-11-26T08:02:51.938Z,50.13
2018-11-26T08:05:21.986Z,51.70
2018-11-26T08:07:50.418Z,56.27
2018-11-26T08:10:21.812Z,53.77
2018-11-26T08:12:51.137Z,54.03
2018-11-26T08:15:23.565Z,55.03
2018-11-26T08:17:51.798Z,53.43
2018-11-26T08:20:20.999Z,53.03
2018-11-26T08:22:49.298Z,51.63
2018-11-26T08:25:19.898Z,53.33
2018-11-26T08:27:48.817Z,49.13
2018-11-26T08:30:26.377Z,49.77
2018-11-26T08:33:00.167Z,52.37
2018-11-26T08:35:28.581Z,48.47
2018-11-26T08:38:02.306Z,51.43
2018-11-26T08:42:39.065Z,51.23
2018-11-26T08:45:14.320Z,52.93
2018-11-26T08:47:42.685Z,46.10
2018-11-26T08:50:11.132Z,47.37
2018-11-26T08:52:39.819Z,52.37
2018-11-26T08:55:08.502Z,49.53
2018-11-26T08:57:36.877Z,45.90
2018-11-26T09:00:05.831Z,47.43
2018-11-26T09:02:38.338Z,41.77
2018-11-26T09:05:15.417Z,48.17
2018-11-26T09:07:44.079Z,44.17
2018-11-26T09:10:12.447Z,46.73
2018-11-26T09:12:41.297Z,42.93
2018-11-26T09:15:10.518Z,44.53
2018-11-26T09:17:38.817Z,45.93
2018-11-26T09:20:10.297Z,50.20
2018-11-26T09:22:38.557Z,49.87
2018-11-26T09:25:12.677Z,46.37
2018-11-26T09:27:41.358Z,45.47
2018-11-26T09:30:12.797Z,46.07
2018-11-26T09:32:42.178Z,46.17
2018-11-26T09:35:14.006Z,47.90
2018-11-26T09:37:42.594Z,46.83
2018-11-26T09:40:13.238Z,40.00
2018-11-26T09:42:41.959Z,48.20
2018-11-26T09:45:12.645Z,42.00
2018-11-26T09:47:41.257Z,40.73
2018-11-26T09:50:13.446Z,46.87
2018-11-26T09:52:41.946Z,43.00
2018-11-26T09:55:11.149Z,40.30
2018-11-26T09:57:39.488Z,44.83
2018-11-26T10:00:11.427Z,42.33
2018-11-26T10:02:40.339Z,39.80
2018-11-26T10:05:12.486Z,41.27
2018-11-26T10:07:40.968Z,46.33
2018-11-26T10:10:11.718Z,43.63
2018-11-26T10:12:40.726Z,40.30
2018-11-26T10:15:18.087Z,38.40
2018-11-26T10:17:46.445Z,41.57
2018-11-26T10:20:14.965Z,39.13
2018-11-26T10:22:43.827Z,36.17
2018-11-26T10:25:15.066Z,37.87
2018-11-26T10:27:43.778Z,38.70
2018-11-26T10:30:13.958Z,39.20
2018-11-26T10:32:43.665Z,42.73
2018-11-26T10:35:13.166Z,36.13
2018-11-26T10:37:41.565Z,38.73
2018-11-26T10:40:12.006Z,40.17
2018-11-26T10:42:40.306Z,42.37
2018-11-26T10:45:11.718Z,41.17
2018-11-26T10:47:40.138Z,41.10
2018-11-26T10:50:11.799Z,38.47
2018-11-26T10:52:40.918Z,42.77
2018-11-26T10:55:15.118Z,42.47
2018-11-26T10:57:43.666Z,39.57
2018-11-26T11:00:18.999Z,36.87
2018-11-26T11:02:47.299Z,39.00
2018-11-26T11:05:15.457Z,39.13
2018-11-26T11:07:43.897Z,38.27
2018-11-26T11:10:15.157Z,38.60
2018-11-26T11:12:43.837Z,39.27
2018-11-26T11:15:13.039Z,44.60
2018-11-26T11:17:41.217Z,36.80
2018-11-26T11:20:15.337Z,36.27
2018-11-26T11:22:43.717Z,37.13
2018-11-26T11:25:13.417Z,40.30
2018-11-26T11:30:17.917Z,38.13
2018-11-26T11:32:46.496Z,34.80
2018-11-26T11:35:15.297Z,43.57
2018-11-26T11:37:45.545Z,33.83
2018-11-26T11:40:15.096Z,37.60
2018-11-26T11:42:43.396Z,40.10
2018-11-26T11:45:13.516Z,37.57
2018-11-26T11:47:41.796Z,33.70
2018-11-26T11:50:12.224Z,36.47
2018-11-26T11:52:40.497Z,36.67
2018-11-26T11:55:14.436Z,38.40
2018-11-26T11:57:42.757Z,34.60
2018-11-26T12:00:49.787Z,36.13
2018-11-26T12:03:19.263Z,29.50
2018-11-26T12:05:47.957Z,32.93
2018-11-26T12:08:16.364Z,35.63
2018-11-26T12:10:44.625Z,29.73
2018-11-26T12:13:13.897Z,32.67
2018-11-26T12:15:52.580Z,30.03
2018-11-26T12:18:20.897Z,33.30
2018-11-26T12:20:49.376Z,34.10
2018-11-26T12:23:17.680Z,32.10
2018-11-26T12:25:45.944Z,30.97
2018-11-26T12:28:14.337Z,34.93
2018-11-26T12:30:45.716Z,35.30
2018-11-26T12:33:14.097Z,33.80
2018-11-26T12:35:42.456Z,31.77
2018-11-26T12:38:10.896Z,34.33
2018-11-26T12:40:39.233Z,33.73
2018-11-26T12:43:07.785Z,37.03
2018-11-26T12:45:36.114Z,33.47
2018-11-26T12:48:04.424Z,36.77
2018-11-26T12:50:32.738Z,31.77
2018-11-26T12:53:00.956Z,33.20
2018-11-26T12:55:29.101Z,38.80
2018-11-26T12:57:57.876Z,35.07
2018-11-26T13:00:27.021Z,37.60
2018-11-26T13:03:13.019Z,38.30
2018-11-26T13:05:41.519Z,36.33
2018-11-26T13:08:10.498Z,36.47
2018-11-26T13:10:38.985Z,31.07
2018-11-26T13:13:08.416Z,34.53
2018-11-26T13:15:36.617Z,30.90
2018-11-26T13:18:05.036Z,32.67
2018-11-26T13:20:33.197Z,34.47
2018-11-26T13:23:01.425Z,30.33
2018-11-26T13:25:33.576Z,29.23
2018-11-26T13:28:05.157Z,33.13
2018-11-26T13:30:51.518Z,28.73
2018-11-26T13:33:20.017Z,28.00
2018-11-26T13:35:49.228Z,30.27
2018-11-26T13:38:17.444Z,26.87
2018-11-26T13:40:45.985Z,32.57
2018-11-26T13:43:15.557Z,30.30
2018-11-26T13:45:45.107Z,31.20
2018-11-26T13:48:14.631Z,31.87
2018-11-26T13:50:51.825Z,32.20
2018-11-26T13:53:20.225Z,28.50
2018-11-26T13:55:48.452Z,29.73
2018-11-26T13:58:16.708Z,26.40
2018-11-26T14:00:44.985Z,28.13
2018-11-26T14:03:13.205Z,27.57
2018-11-26T14:05:41.547Z,31.07
2018-11-26T14:08:09.805Z,25.30
2018-11-26T14:10:38.366Z,31.33
2018-11-26T14:13:12.205Z,26.87
2018-11-26T14:15:40.516Z,30.13
2018-11-26T14:18:08.826Z,26.57
2018-11-26T14:20:37.066Z,23.23
2018-11-26T14:23:05.786Z,26.27
2018-11-26T14:25:34.085Z,25.90
2018-11-26T14:28:02.226Z,26.43
2018-11-26T14:30:30.705Z,28.60
2018-11-26T14:32:59.267Z,28.33
2018-11-26T14:35:32.185Z,25.63
2018-11-26T14:38:06.085Z,25.00
2018-11-26T14:40:36.177Z,26.83
2018-11-26T14:43:04.498Z,24.57
2018-11-26T14:45:32.869Z,26.40
2018-11-26T14:48:01.145Z,23.37
2018-11-26T14:50:29.485Z,24.03
2018-11-26T14:52:58.007Z,25.07
2018-11-26T14:55:29.546Z,23.73
2018-11-26T14:57:58.693Z,23.77
2018-11-26T15:00:27.585Z,28.63
2018-11-26T15:02:55.879Z,23.20
2018-11-26T15:05:24.185Z,24.53
2018-11-26T15:07:52.426Z,23.63
2018-11-26T15:10:21.833Z,25.40
2018-11-26T15:12:50.245Z,25.40
2018-11-26T15:15:19.758Z,25.57
2018-11-26T15:17:48.237Z,24.57
2018-11-26T15:20:19.565Z,24.13
2018-11-26T15:22:48.185Z,27.30
2018-11-26T15:25:18.125Z,26.90
2018-11-26T15:27:46.525Z,30.57
2018-11-26T15:30:17.679Z,27.57
2018-11-26T15:32:46.041Z,27.20
2018-11-26T15:35:15.337Z,30.50
2018-11-26T15:37:43.677Z,28.43
2018-11-26T15:40:13.665Z,24.93
2018-11-26T15:42:42.125Z,23.43
2018-11-26T15:45:17.238Z,22.07
2018-11-26T15:47:45.657Z,22.73
2018-11-26T15:50:13.917Z,21.00
2018-11-26T15:52:42.137Z,23.80
2018-11-26T15:55:12.539Z,23.57
2018-11-26T15:57:40.877Z,23.10
2018-11-26T16:00:14.420Z,21.57
2018-11-26T16:02:42.744Z,23.37
2018-11-26T16:05:19.728Z,23.67
2018-11-26T16:07:48.926Z,27.43
2018-11-26T16:10:17.185Z,27.90
2018-11-26T16:12:46.907Z,26.73
2018-11-26T16:15:23.985Z,29.63
2018-11-26T16:17:53.066Z,28.57
2018-11-26T16:20:23.105Z,30.47
2018-11-26T16:22:51.437Z,27.53
2018-11-26T16:25:21.145Z,29.23
2018-11-26T16:27:49.417Z,25.53
2018-11-26T16:30:18.524Z,30.67
2018-11-26T16:32:49.757Z,29.67
2018-11-26T16:35:20.157Z,28.80
2018-11-26T16:37:48.518Z,27.40
2018-11-26T16:40:17.285Z,26.57
2018-11-26T16:42:45.537Z,30.97
2018-11-26T16:45:17.876Z,33.00
2018-11-26T16:47:47.157Z,29.40
2018-11-26T16:50:16.508Z,29.47
2018-11-26T16:52:44.885Z,32.13
2018-11-26T16:55:14.278Z,34.93
2018-11-26T16:57:42.605Z,34.23
2018-11-26T17:00:17.865Z,33.20
2018-11-26T17:02:46.977Z,30.87
2018-11-26T17:05:20.797Z,29.87
2018-11-26T17:07:48.985Z,29.97
2018-11-26T17:10:17.197Z,34.23
2018-11-26T17:12:45.457Z,30.10
2018-11-26T17:15:15.459Z,31.83
2018-11-26T17:17:43.697Z,33.30
2018-11-26T17:20:13.878Z,32.83
2018-11-26T17:22:42.421Z,31.27
2018-11-26T17:25:11.785Z,27.67
2018-11-26T17:27:40.737Z,31.93
2018-11-26T17:30:14.277Z,28.43
2018-11-26T17:32:42.458Z,34.93
2018-11-26T17:35:11.898Z,35.13
2018-11-26T17:37:42.883Z,29.33
2018-11-26T17:40:16.457Z,35.07
2018-11-26T17:42:45.544Z,28.67
2018-11-26T17:45:14.637Z,29.80
2018-11-26T17:47:45.545Z,32.73
2018-11-26T17:50:45.585Z,34.27
2018-11-26T17:53:17.317Z,33.17
2018-11-26T17:55:49.619Z,35.97
2018-11-26T17:58:18.747Z,31.27
2018-11-26T18:00:52.545Z,33.83
2018-11-26T18:03:20.758Z,29.20
2018-11-26T18:05:49.297Z,30.47
2018-11-26T18:08:18.337Z,31.43
2018-11-26T18:10:46.837Z,34.07
2018-11-26T18:13:15.166Z,34.33
2018-11-26T18:15:43.477Z,30.13
2018-11-26T18:18:14.837Z,37.03
2018-11-26T18:20:43.245Z,33.17
2018-11-26T18:23:11.785Z,37.47
2018-11-26T18:25:40.157Z,31.73
2018-11-26T18:28:10.762Z,33.67
2018-11-26T18:30:43.345Z,35.20
2018-11-26T18:33:11.538Z,35.27
2018-11-26T18:35:40.518Z,36.17
2018-11-26T18:38:08.877Z,35.47
2018-11-26T18:40:38.537Z,34.77
2018-11-26T18:43:08.197Z,33.50
2018-11-26T18:45:37.685Z,37.47
2018-11-26T18:48:06.658Z,36.90
2018-11-26T18:50:35.157Z,34.10
2018-11-26T18:53:03.494Z,38.63
2018-11-26T18:55:31.860Z,35.03
2018-11-26T18:58:00.258Z,33.53
2018-11-26T19:00:30.837Z,36.57
2018-11-26T19:02:59.286Z,32.47
2018-11-26T19:05:27.637Z,40.53
2018-11-26T19:07:56.139Z,37.83
2018-11-26T19:10:27.465Z,37.00
2018-11-26T19:13:14.987Z,35.73
2018-11-26T19:15:48.800Z,37.50
2018-11-26T19:18:24.885Z,35.20
2018-11-26T19:20:53.716Z,40.90
2018-11-26T19:23:22.857Z,36.00
2018-11-26T19:25:52.197Z,40.07
2018-11-26T19:28:20.670Z,38.80
2018-11-26T19:30:49.125Z,44.30
2018-11-26T19:33:17.505Z,40.77
2018-11-26T19:35:45.897Z,39.23
2018-11-26T19:38:14.105Z,44.50
2018-11-26T19:40:42.836Z,41.17
2018-11-26T19:43:11.277Z,42.03
2018-11-26T19:45:39.676Z,42.10
2018-11-26T19:48:08.756Z,46.00
2018-11-26T19:50:38.929Z,38.90
2018-11-26T19:53:09.636Z,47.60
2018-11-26T19:55:38.276Z,49.83
2018-11-26T19:58:08.997Z,52.90
2018-11-26T20:00:38.278Z,48.67
2018-11-26T20:03:15.118Z,50.67
2018-11-26T20:06:11.116Z,48.77
2018-11-26T20:08:40.284Z,49.30
2018-11-26T20:11:08.956Z,55.10
2018-11-26T20:13:38.116Z,50.80
2018-11-26T20:16:10.797Z,48.53
2018-11-26T20:18:39.277Z,43.00
2018-11-26T20:21:07.796Z,56.10
2018-11-26T20:23:36.404Z,54.17
2018-11-26T20:26:05.337Z,48.63
2018-11-26T20:28:34.656Z,53.27
2018-11-26T20:31:03.216Z,52.37
2018-11-26T20:33:31.656Z,50.70
2018-11-26T20:36:00.017Z,53.77
2018-11-26T20:38:28.256Z,48.10
2018-11-26T20:40:56.646Z,55.77
2018-11-26T20:43:25.116Z,52.33
2018-11-26T20:45:53.724Z,47.67
2018-11-26T20:48:22.137Z,53.73
2018-11-26T20:50:51.998Z,48.73
2018-11-26T20:53:23.556Z,52.57
2018-11-26T20:55:51.878Z,53.57
2018-11-26T20:58:20.205Z,46.10
2018-11-26T21:00:48.506Z,48.50
2018-11-26T21:03:16.897Z,45.80
2018-11-26T21:05:45.265Z,48.57
2018-11-26T21:08:13.537Z,48.27
2018-11-26T21:10:42.017Z,47.47
2018-11-26T21:13:10.446Z,45.43
2018-11-26T21:15:38.784Z,45.57
2018-11-26T21:18:11.185Z,46.00
2018-11-26T21:20:46.123Z,44.40
2018-11-26T21:23:18.564Z,50.03
2018-11-26T21:25:46.946Z,41.33
2018-11-26T21:28:15.505Z,52.03
2018-11-26T21:30:43.897Z,47.13
2018-11-26T21:33:12.365Z,50.30
2018-11-26T21:35:40.546Z,49.37
2018-11-26T21:38:10.800Z,43.00
2018-11-26T21:40:40.878Z,43.90
2018-11-26T21:43:10.585Z,46.00
2018-11-26T21:45:59.236Z,44.47
2018-11-26T21:48:27.564Z,42.87
2018-11-26T21:50:55.805Z,40.23
2018-11-26T21:53:25.305Z,40.47
2018-11-26T21:55:53.596Z,43.40
2018-11-26T21:58:21.937Z,39.87
2018-11-26T22:00:51.764Z,42.97
2018-11-26T22:03:20.065Z,43.70
2018-11-26T22:05:48.524Z,37.13
2018-11-26T22:08:16.759Z,41.33
2018-11-26T22:10:45.104Z,39.60
2018-11-26T22:13:16.925Z,34.23
2018-11-26T22:15:45.276Z,40.27
2018-11-26T22:18:13.546Z,38.70
2018-11-26T22:20:41.837Z,42.57
2018-11-26T22:23:10.085Z,43.33
2018-11-26T22:25:38.326Z,34.50
2018-11-26T22:28:08.856Z,35.73
2018-11-26T22:30:38.556Z,34.27
2018-11-26T22:33:06.844Z,38.20
2018-11-26T22:35:35.117Z,33.23
2018-11-26T22:38:03.333Z,37.33
2018-11-26T22:40:31.585Z,34.43
2018-11-26T22:42:59.856Z,34.10
2018-11-26T22:45:31.345Z,38.43
2018-11-26T22:48:14.704Z,38.80
2018-11-26T22:50:48.586Z,33.60
2018-11-26T22:53:16.778Z,40.70
2018-11-26T22:55:44.965Z,33.77
2018-11-26T22:58:14.207Z,34.07
2018-11-26T23:00:57.845Z,33.67
2018-11-26T23:03:26.578Z,32.90
2018-11-26T23:05:54.881Z,35.60
2018-11-26T23:08:23.076Z,30.83
2018-11-26T23:10:51.276Z,33.07
2018-11-26T23:13:19.459Z,30.73
2018-11-26T23:15:47.976Z,31.17
2018-11-26T23:18:16.384Z,30.83
2018-11-26T23:20:44.684Z,33.47
2018-11-26T23:23:15.436Z,29.17
2018-11-26T23:25:43.676Z,27.03
2018-11-26T23:28:11.856Z,29.57
2018-11-26T23:30:40.244Z,34.00
2018-11-26T23:33:08.724Z,29.73
2018-11-26T23:35:37.159Z,28.57
2018-11-26T23:38:05.436Z,31.33
2018-11-26T23:40:34.216Z,23.77
2018-11-26T23:43:02.184Z,30.53
2018-11-26T23:45:30.724Z,32.17
2018-11-26T23:47:58.884Z,28.57
2018-11-26T23:50:27.385Z,31.90
2018-11-26T23:52:55.727Z,30.57
2018-11-26T23:55:24.604Z,25.47
2018-11-26T23:57:52.846Z,34.43
